createdAt,value
2023-04-24T00:01:08.791Z,99942.75
2023-04-24T00:03:37.233Z,99932.03
2023-04-24T00:06:07.779Z,99930.34
2023-04-24T00:08:36.077Z,99950.09
2023-04-24T00:11:04.146Z,99952.06
2023-04-24T00:13:32.459Z,99955.47
2023-04-24T00:16:00.374Z,99961.81
2023-04-24T00:18:28.433Z,99964.50
2023-04-24T00:20:56.566Z,99959.16
2023-04-24T00:23:25.920Z,99959.97
2023-04-24T00:25:53.892Z,99966.47
2023-04-24T00:28:22.021Z,99972.66
2023-04-24T00:30:50.074Z,99978.03
2023-04-24T00:33:18.167Z,99971.81
2023-04-24T00:35:46.144Z,99971.13
2023-04-24T00:38:14.241Z,99967.59
2023-04-24T00:40:45.201Z,99972.13
2023-04-24T00:43:13.318Z,99956.69
2023-04-24T00:45:41.872Z,99978.47
2023-04-24T00:48:10.139Z,99973.09
2023-04-24T00:50:38.595Z,99975.78
2023-04-24T00:53:06.767Z,99973.94
2023-04-24T00:55:34.836Z,99977.59
2023-04-24T00:58:04.194Z,99975.94
2023-04-24T01:00:32.697Z,99975.06
2023-04-24T01:03:03.882Z,99983.97
2023-04-24T01:05:32.348Z,99990.16
2023-04-24T01:08:01.394Z,99983.25
2023-04-24T01:10:31.566Z,99988.59
2023-04-24T01:13:00.231Z,99987.75
2023-04-24T01:15:29.536Z,99986.06
2023-04-24T01:17:58.202Z,99984.38
2023-04-24T01:20:27.913Z,99985.38
2023-04-24T01:22:58.467Z,99989.88
2023-04-24T01:25:29.978Z,99995.34
2023-04-24T01:27:59.212Z,99998.88
2023-04-24T01:30:27.318Z,99994.66
2023-04-24T01:32:55.766Z,99976.56
2023-04-24T01:35:23.979Z,100014.53
2023-04-24T01:37:52.110Z,100009.34
2023-04-24T01:40:21.606Z,100012.00
2023-04-24T01:42:49.846Z,100015.66
2023-04-24T01:45:17.988Z,100012.28
2023-04-24T01:47:47.094Z,100010.56
2023-04-24T01:50:15.691Z,99990.94
2023-04-24T01:52:43.850Z,100015.22
2023-04-24T01:55:12.638Z,99995.44
2023-04-24T01:57:42.299Z,100017.19
2023-04-24T02:00:12.259Z,100014.53
2023-04-24T02:02:46.528Z,100012.97
2023-04-24T02:05:16.314Z,100013.94
2023-04-24T02:07:44.318Z,100016.59
2023-04-24T02:10:13.160Z,100010.53
2023-04-24T02:12:45.720Z,100016.75
2023-04-24T02:15:14.092Z,100021.25
2023-04-24T02:17:42.287Z,99992.56
2023-04-24T02:20:10.392Z,100026.78
2023-04-24T02:22:40.116Z,100026.03
2023-04-24T02:25:09.078Z,100025.19
2023-04-24T02:27:37.100Z,100027.03
2023-04-24T02:30:10.440Z,100020.69
2023-04-24T02:32:40.077Z,100031.53
2023-04-24T02:35:09.005Z,100025.34
2023-04-24T02:37:37.013Z,100023.63
2023-04-24T02:40:06.886Z,100025.47
2023-04-24T02:42:34.993Z,100032.66
2023-04-24T02:45:03.192Z,100030.97
2023-04-24T02:47:32.832Z,100030.84
2023-04-24T02:50:01.821Z,100033.78
2023-04-24T02:52:29.900Z,100041.66
2023-04-24T02:54:57.937Z,99946.25
2023-04-24T02:57:26.088Z,100039.41
2023-04-24T02:59:54.187Z,100049.00
2023-04-24T03:02:22.796Z,100046.31
2023-04-24T03:04:52.324Z,100048.16
2023-04-24T03:07:22.240Z,100054.50
2023-04-24T03:09:50.262Z,100051.84
2023-04-24T03:12:19.015Z,100053.78
2023-04-24T03:14:46.966Z,100057.31
2023-04-24T03:17:14.989Z,100047.59
2023-04-24T03:19:43.179Z,100054.88
2023-04-24T03:22:14.651Z,100062.09
2023-04-24T03:24:43.287Z,100060.41
2023-04-24T03:27:11.265Z,100068.44
2023-04-24T03:29:57.745Z,100065.88
2023-04-24T03:32:37.989Z,100065.16
2023-04-24T03:35:07.444Z,100056.25
2023-04-24T03:37:36.875Z,100059.78
2023-04-24T03:40:31.082Z,100066.25
2023-04-24T03:43:00.352Z,100040.94
2023-04-24T03:45:28.446Z,100061.16
2023-04-24T03:47:56.556Z,100060.31
2023-04-24T03:50:24.651Z,100042.75
2023-04-24T03:52:54.036Z,100065.69
2023-04-24T03:55:34.196Z,100071.16
2023-04-24T03:58:02.492Z,100076.66
2023-04-24T04:00:34.117Z,100081.16
2023-04-24T04:03:22.350Z,100082.13
2023-04-24T04:05:51.356Z,100076.06
2023-04-24T04:08:20.628Z,100094.69
2023-04-24T04:10:49.922Z,100072.88
2023-04-24T04:13:17.860Z,100110.88
2023-04-24T04:15:46.518Z,100112.69
2023-04-24T04:18:14.882Z,100111.72
2023-04-24T04:20:42.944Z,100114.41
2023-04-24T04:23:13.111Z,100123.31
2023-04-24T04:26:06.122Z,100126.84
2023-04-24T04:28:59.956Z,100104.41
2023-04-24T04:31:28.143Z,100135.84
2023-04-24T04:33:58.008Z,100140.34
2023-04-24T04:36:26.991Z,100151.91
2023-04-24T04:39:03.779Z,100151.06
2023-04-24T04:41:50.041Z,100159.09
2023-04-24T04:44:20.056Z,100160.91
2023-04-24T04:46:48.755Z,100169.81
2023-04-24T04:49:25.693Z,100177.97
2023-04-24T04:51:54.085Z,100176.13
2023-04-24T04:54:23.456Z,100174.31
2023-04-24T04:56:53.717Z,100171.50
2023-04-24T04:59:22.028Z,100191.22
2023-04-24T05:01:53.478Z,100197.44
2023-04-24T05:04:22.393Z,100201.09
2023-04-24T05:06:53.242Z,100197.44
2023-04-24T05:09:23.259Z,100202.81
2023-04-24T05:11:58.760Z,100201.94
2023-04-24T05:14:28.734Z,100188.94
2023-04-24T05:16:57.547Z,100196.72
2023-04-24T05:19:27.529Z,100187.84
2023-04-24T05:21:55.867Z,100190.63
2023-04-24T05:24:24.348Z,100195.16
2023-04-24T05:27:28.923Z,100194.41
2023-04-24T05:29:57.621Z,100178.88
2023-04-24T05:32:25.669Z,100184.09
2023-04-24T05:34:53.724Z,100186.66
2023-04-24T05:37:21.777Z,100199.19
2023-04-24T05:39:49.917Z,100201.88
2023-04-24T05:42:17.909Z,100209.91
2023-04-24T05:44:47.329Z,100217.94
2023-04-24T05:47:15.450Z,100216.25
2023-04-24T05:49:44.038Z,100211.88
2023-04-24T05:52:12.184Z,100216.25
2023-04-24T05:54:41.875Z,100219.91
2023-04-24T05:57:11.793Z,100206.78
2023-04-24T05:59:52.352Z,100207.50
2023-04-24T06:02:22.385Z,100207.63
2023-04-24T06:04:50.564Z,100216.50
2023-04-24T06:07:19.491Z,100219.91
2023-04-24T06:09:48.156Z,100214.56
2023-04-24T06:12:16.654Z,100207.50
2023-04-24T06:14:56.470Z,100210.16
2023-04-24T06:17:38.391Z,100213.81
2023-04-24T06:20:08.979Z,100205.78
2023-04-24T06:22:37.400Z,100207.75
2023-04-24T06:25:06.728Z,100205.06
2023-04-24T06:27:34.961Z,100210.41
2023-04-24T06:30:05.118Z,100207.75
2023-04-24T06:32:34.996Z,100205.31
2023-04-24T06:35:03.058Z,100206.31
2023-04-24T06:37:31.467Z,100209.81
2023-04-24T06:39:59.443Z,100211.78
2023-04-24T06:42:27.358Z,100213.59
2023-04-24T06:44:57.116Z,100216.16
2023-04-24T06:47:26.585Z,100223.34
2023-04-24T06:49:56.127Z,100221.63
2023-04-24T06:52:24.107Z,100225.31
2023-04-24T06:54:52.237Z,100221.53
2023-04-24T06:57:20.998Z,100229.41
2023-04-24T06:59:49.207Z,100229.31
2023-04-24T07:02:17.261Z,100230.34
2023-04-24T07:04:48.543Z,100233.50
2023-04-24T07:07:17.607Z,100233.22
2023-04-24T07:09:46.496Z,100237.22
2023-04-24T07:12:14.601Z,100233.22
2023-04-24T07:14:42.585Z,100247.69
2023-04-24T07:17:10.637Z,100249.28
2023-04-24T07:19:38.672Z,100260.22
2023-04-24T07:22:08.175Z,100265.34
2023-04-24T07:24:36.375Z,100278.59
2023-04-24T07:27:04.410Z,100276.63
2023-04-24T07:29:32.430Z,100274.09
2023-04-24T07:32:02.094Z,100287.81
2023-04-24T07:34:31.967Z,100288.56
2023-04-24T07:36:59.952Z,100297.31
2023-04-24T07:39:30.259Z,100299.84
2023-04-24T07:41:59.600Z,100296.72
2023-04-24T07:44:27.451Z,100295.03
2023-04-24T07:46:55.898Z,100321.75
2023-04-24T07:49:23.979Z,100317.41
2023-04-24T07:51:52.084Z,100323.59
2023-04-24T07:54:20.060Z,100328.97
2023-04-24T07:56:50.646Z,100320.06
2023-04-24T07:59:18.741Z,100325.03
2023-04-24T08:01:46.854Z,100325.03
2023-04-24T08:04:15.137Z,100325.03
2023-04-24T08:06:43.285Z,100329.91
2023-04-24T08:09:11.442Z,100320.28
2023-04-24T08:11:39.476Z,100303.28
2023-04-24T08:14:08.946Z,100337.53
2023-04-24T08:16:37.602Z,100334.00
2023-04-24T08:19:05.920Z,100329.50
2023-04-24T08:21:34.005Z,100316.94
2023-04-24T08:24:06.078Z,100321.19
2023-04-24T08:26:34.211Z,100326.44
2023-04-24T08:29:02.293Z,100317.81
2023-04-24T08:31:31.745Z,100323.75
2023-04-24T08:34:00.940Z,100331.94
2023-04-24T08:36:43.513Z,100331.06
2023-04-24T08:39:14.515Z,100327.06
2023-04-24T08:41:44.058Z,100342.50
2023-04-24T08:44:13.741Z,100345.19
2023-04-24T08:46:44.769Z,100348.72
2023-04-24T08:49:14.250Z,100344.88
2023-04-24T08:51:42.280Z,100362.28
2023-04-24T08:54:10.601Z,100357.88
2023-04-24T08:56:40.408Z,100356.16
2023-04-24T08:59:08.708Z,100340.63
2023-04-24T09:01:40.895Z,100347.31
2023-04-24T09:04:13.327Z,100356.16
2023-04-24T09:06:41.996Z,100324.44
2023-04-24T09:09:12.788Z,100355.34
2023-04-24T09:11:41.002Z,100347.31
2023-04-24T09:14:10.382Z,100337.78
2023-04-24T09:16:38.657Z,100345.44
2023-04-24T09:19:06.702Z,100347.31
2023-04-24T09:21:37.133Z,100347.16
2023-04-24T09:24:08.208Z,100337.28
2023-04-24T09:26:38.308Z,100339.97
2023-04-24T09:29:06.924Z,100338.97
2023-04-24T09:31:35.139Z,100343.38
2023-04-24T09:34:08.326Z,100347.75
2023-04-24T09:36:39.293Z,100349.44
2023-04-24T09:39:09.218Z,100354.09
2023-04-24T09:41:45.318Z,100365.69
2023-04-24T09:44:15.318Z,100334.78
2023-04-24T09:46:44.270Z,100350.69
2023-04-24T09:49:16.439Z,100351.66
2023-04-24T09:51:45.993Z,100360.72
2023-04-24T09:54:18.280Z,100349.97
2023-04-24T09:56:47.561Z,100353.78
2023-04-24T09:59:16.021Z,100350.22
2023-04-24T10:01:45.686Z,100350.88
2023-04-24T10:04:21.597Z,100353.88
2023-04-24T10:06:52.708Z,100352.19
2023-04-24T10:09:21.800Z,100349.63
2023-04-24T10:11:51.231Z,100345.13
2023-04-24T10:14:21.591Z,100337.09
2023-04-24T10:16:50.566Z,100347.09
2023-04-24T10:19:21.089Z,100348.78
2023-04-24T10:21:50.845Z,100337.72
2023-04-24T10:24:21.436Z,100355.00
2023-04-24T10:26:50.078Z,100354.38
2023-04-24T10:29:22.413Z,100346.94
2023-04-24T10:31:50.662Z,100345.25
2023-04-24T10:34:22.566Z,100357.66
2023-04-24T10:36:56.537Z,100363.03
2023-04-24T10:39:27.897Z,100364.13
2023-04-24T10:41:58.516Z,100369.25
2023-04-24T10:44:27.746Z,100371.94
2023-04-24T10:46:57.787Z,100372.78
2023-04-24T10:49:31.888Z,100374.63
2023-04-24T10:52:06.700Z,100371.06
2023-04-24T10:54:37.989Z,100372.78
2023-04-24T10:57:31.015Z,100371.06
2023-04-24T11:00:32.330Z,100375.56
2023-04-24T11:03:00.682Z,100369.41
2023-04-24T11:05:54.541Z,100378.16
2023-04-24T11:08:28.864Z,100375.47
2023-04-24T11:11:02.790Z,100371.94
2023-04-24T11:14:07.416Z,100377.28
2023-04-24T11:16:39.580Z,100386.31
2023-04-24T11:19:09.227Z,100379.84
2023-04-24T11:21:45.156Z,100374.38
2023-04-24T11:24:28.947Z,100362.94
2023-04-24T11:26:58.972Z,100363.03
2023-04-24T11:29:41.714Z,100368.28
2023-04-24T11:32:27.743Z,100365.59
2023-04-24T11:34:57.865Z,100361.22
2023-04-24T11:37:28.184Z,100375.47
2023-04-24T11:39:58.884Z,100377.16
2023-04-24T11:42:27.251Z,100371.22
2023-04-24T11:44:56.513Z,100386.06
2023-04-24T11:47:31.088Z,100379.72
2023-04-24T11:50:00.527Z,100378.16
2023-04-24T11:52:29.508Z,100378.16
2023-04-24T11:54:59.550Z,100387.88
2023-04-24T11:57:29.977Z,100363.69
2023-04-24T11:59:57.955Z,100379.00
2023-04-24T12:02:26.889Z,100387.16
2023-04-24T12:04:56.378Z,100379.13
2023-04-24T12:07:25.922Z,100379.13
2023-04-24T12:10:00.567Z,100388.03
2023-04-24T12:12:30.096Z,100375.56
2023-04-24T12:14:59.964Z,100370.22
2023-04-24T12:17:29.821Z,100365.84
2023-04-24T12:20:02.428Z,100363.88
2023-04-24T12:22:31.281Z,100375.72
2023-04-24T12:25:06.439Z,100379.25
2023-04-24T12:27:35.171Z,100348.00
2023-04-24T12:30:06.337Z,100382.91
2023-04-24T12:32:34.713Z,100372.97
2023-04-24T12:35:07.055Z,100388.41
2023-04-24T12:37:37.476Z,100382.91
2023-04-24T12:40:09.712Z,100377.53
2023-04-24T12:42:43.672Z,100378.25
2023-04-24T12:45:13.153Z,100373.50
2023-04-24T12:47:42.216Z,100373.25
2023-04-24T12:50:11.735Z,100360.41
2023-04-24T12:52:40.359Z,100319.34
2023-04-24T12:55:10.535Z,100359.19
2023-04-24T12:57:40.150Z,100352.97
2023-04-24T13:00:10.436Z,100350.75
2023-04-24T13:02:38.581Z,100356.72
2023-04-24T13:05:07.129Z,100349.25
2023-04-24T13:07:35.267Z,100349.75
2023-04-24T13:10:03.307Z,100358.34
2023-04-24T13:12:32.683Z,100357.13
2023-04-24T13:15:01.118Z,100359.44
2023-04-24T13:17:29.205Z,100364.56
2023-04-24T13:19:57.823Z,100360.88
2023-04-24T13:22:26.004Z,100358.78
2023-04-24T13:24:54.110Z,100363.19
2023-04-24T13:27:22.102Z,100360.34
2023-04-24T13:29:52.189Z,100358.28
2023-04-24T13:32:20.579Z,100363.50
2023-04-24T13:34:48.960Z,100353.47
2023-04-24T13:37:17.043Z,100360.56
2023-04-24T13:39:45.130Z,100356.91
2023-04-24T13:42:13.781Z,100351.53
2023-04-24T13:44:42.603Z,100362.56
2023-04-24T13:47:12.009Z,100366.97
2023-04-24T13:49:40.052Z,100368.53
2023-04-24T13:52:08.345Z,100364.00
2023-04-24T13:54:36.337Z,100359.47
2023-04-24T13:57:05.342Z,100356.78
2023-04-24T13:59:33.521Z,100364.00
2023-04-24T14:02:01.670Z,100356.09
2023-04-24T14:04:31.181Z,100356.94
2023-04-24T14:06:59.435Z,100356.22
2023-04-24T14:09:27.531Z,100337.81
2023-04-24T14:11:55.606Z,100336.69
2023-04-24T14:14:23.677Z,100343.34
2023-04-24T14:16:51.937Z,100349.09
2023-04-24T14:19:20.057Z,100350.34
2023-04-24T14:21:50.023Z,100341.56
2023-04-24T14:24:17.994Z,100332.94
2023-04-24T14:26:46.037Z,100337.31
2023-04-24T14:29:15.401Z,100337.31
2023-04-24T14:31:43.922Z,100333.78
2023-04-24T14:34:11.870Z,100329.28
2023-04-24T14:36:39.964Z,100324.88
2023-04-24T14:39:09.713Z,100329.13
2023-04-24T14:41:38.524Z,100333.66
2023-04-24T14:44:06.699Z,100328.31
2023-04-24T14:46:35.105Z,100306.88
2023-04-24T14:49:03.230Z,100323.75
2023-04-24T14:51:31.450Z,100297.75
2023-04-24T14:54:00.249Z,100305.66
2023-04-24T14:56:29.734Z,100319.13
2023-04-24T14:58:57.762Z,100326.34
2023-04-24T15:01:26.423Z,100325.47
2023-04-24T15:03:55.000Z,100307.81
2023-04-24T15:06:23.269Z,100309.53
2023-04-24T15:08:54.189Z,100317.28
2023-04-24T15:11:22.348Z,100303.03
2023-04-24T15:13:52.080Z,100303.88
2023-04-24T15:16:20.272Z,100294.13
2023-04-24T15:18:48.378Z,100299.50
2023-04-24T15:21:16.403Z,100297.78
2023-04-24T15:23:44.602Z,100297.78
2023-04-24T15:26:12.770Z,100301.47
2023-04-24T15:28:40.818Z,100297.22
2023-04-24T15:31:10.218Z,100299.63
2023-04-24T15:33:38.296Z,100286.34
2023-04-24T15:36:06.911Z,100288.16
2023-04-24T15:38:35.095Z,100289.03
2023-04-24T15:41:03.194Z,100291.88
2023-04-24T15:43:35.083Z,100249.75
2023-04-24T15:46:03.484Z,100294.41
2023-04-24T15:48:33.448Z,100288.06
2023-04-24T15:51:04.777Z,100295.09
2023-04-24T15:53:32.991Z,100291.56
2023-04-24T15:56:01.164Z,100288.06
2023-04-24T15:58:29.217Z,100282.69
2023-04-24T16:00:57.249Z,100289.03
2023-04-24T16:03:25.600Z,100294.41
2023-04-24T16:05:55.462Z,100286.50
2023-04-24T16:08:23.657Z,100283.94
2023-04-24T16:10:52.684Z,100282.25
2023-04-24T16:13:20.918Z,100265.41
2023-04-24T16:15:49.854Z,100270.28
2023-04-24T16:18:18.506Z,100272.13
2023-04-24T16:20:46.798Z,100268.00
2023-04-24T16:23:16.294Z,100269.84
2023-04-24T16:25:44.262Z,100269.28
2023-04-24T16:28:12.842Z,100273.06
2023-04-24T16:30:40.924Z,100266.97
2023-04-24T16:33:10.912Z,100251.28
2023-04-24T16:35:39.009Z,100261.03
2023-04-24T16:38:07.022Z,100258.63
2023-04-24T16:40:36.545Z,100264.94
2023-04-24T16:43:04.693Z,100265.22
2023-04-24T16:45:32.643Z,100265.59
2023-04-24T16:48:00.852Z,100257.13
2023-04-24T16:50:28.865Z,100265.31
2023-04-24T16:52:56.922Z,100257.88
2023-04-24T16:55:25.430Z,100261.31
2023-04-24T16:57:54.815Z,100249.97
2023-04-24T17:00:22.863Z,100240.53
2023-04-24T17:02:51.197Z,100235.81
2023-04-24T17:05:21.264Z,100241.16
2023-04-24T17:07:49.331Z,100246.63
2023-04-24T17:10:17.634Z,100242.25
2023-04-24T17:12:45.613Z,100246.03
2023-04-24T17:15:15.049Z,100242.78
2023-04-24T17:17:44.319Z,100245.72
2023-04-24T17:20:21.965Z,100237.81
2023-04-24T17:22:51.229Z,100233.69
2023-04-24T17:25:19.352Z,100219.59
2023-04-24T17:27:47.538Z,100246.59
2023-04-24T17:30:17.693Z,100233.69
2023-04-24T17:32:46.356Z,100241.47
2023-04-24T17:35:14.492Z,100242.59
2023-04-24T17:37:42.539Z,100240.06
2023-04-24T17:40:11.521Z,100247.38
2023-04-24T17:42:41.529Z,100254.66
2023-04-24T17:45:11.321Z,100245.91
2023-04-24T17:47:41.077Z,100258.44
2023-04-24T17:50:09.803Z,100259.69
2023-04-24T17:52:37.764Z,100258.84
2023-04-24T17:55:06.617Z,100240.34
2023-04-24T17:57:34.691Z,100254.72
2023-04-24T18:00:02.967Z,100255.69
2023-04-24T18:02:33.830Z,100253.25
2023-04-24T18:05:03.652Z,100245.38
2023-04-24T18:07:31.596Z,100244.63
2023-04-24T18:09:59.606Z,100240.25
2023-04-24T18:12:28.063Z,100251.09
2023-04-24T18:15:10.425Z,100245.88
2023-04-24T18:17:41.759Z,100241.63
2023-04-24T18:20:12.412Z,100244.44
2023-04-24T18:22:40.759Z,100242.84
2023-04-24T18:25:09.855Z,100245.53
2023-04-24T18:27:38.534Z,100250.13
2023-04-24T18:30:07.828Z,100250.28
2023-04-24T18:32:36.293Z,100261.94
2023-04-24T18:35:04.979Z,100235.34
2023-04-24T18:37:34.604Z,100255.03
2023-04-24T18:40:03.581Z,100253.34
2023-04-24T18:42:31.942Z,100247.50
2023-04-24T18:45:01.845Z,100248.22
2023-04-24T18:47:30.119Z,100247.63
2023-04-24T18:49:58.194Z,100244.22
2023-04-24T18:52:26.593Z,100252.97
2023-04-24T18:54:56.044Z,100249.44
2023-04-24T18:57:25.327Z,100241.78
2023-04-24T18:59:53.896Z,100237.41
2023-04-24T19:02:22.218Z,100248.00
2023-04-24T19:04:50.343Z,100236.28
2023-04-24T19:07:19.371Z,100237.28
2023-04-24T19:09:47.380Z,100229.25
2023-04-24T19:12:16.952Z,100228.41
2023-04-24T19:14:45.786Z,100227.56
2023-04-24T19:17:14.108Z,100228.53
2023-04-24T19:19:42.117Z,100217.84
2023-04-24T19:22:10.294Z,100234.00
2023-04-24T19:24:38.819Z,100210.78
2023-04-24T19:27:06.835Z,100212.72
2023-04-24T19:29:36.337Z,100203.72
2023-04-24T19:32:04.759Z,100207.47
2023-04-24T19:34:34.535Z,100207.47
2023-04-24T19:37:02.745Z,100199.72
2023-04-24T19:39:32.423Z,100199.59
2023-04-24T19:42:04.107Z,100190.47
2023-04-24T19:44:33.239Z,100196.06
2023-04-24T19:47:02.761Z,100197.88
2023-04-24T19:49:37.076Z,100193.53
2023-04-24T19:52:07.850Z,100197.16
2023-04-24T19:54:35.802Z,100201.66
2023-04-24T19:57:04.115Z,100191.94
2023-04-24T19:59:34.000Z,100185.03
2023-04-24T20:02:03.958Z,100181.03
2023-04-24T20:04:32.118Z,100186.72
2023-04-24T20:07:00.836Z,100188.41
2023-04-24T20:09:30.431Z,100186.00
2023-04-24T20:12:00.159Z,100184.75
2023-04-24T20:14:28.250Z,100185.59
2023-04-24T20:16:56.399Z,100190.97
2023-04-24T20:19:25.905Z,100182.81
2023-04-24T20:21:54.598Z,100181.81
2023-04-24T20:24:22.704Z,100162.13
2023-04-24T20:26:50.743Z,100160.31
2023-04-24T20:29:18.869Z,100162.00
2023-04-24T20:31:47.470Z,100165.53
2023-04-24T20:34:15.597Z,100162.84
2023-04-24T20:36:49.361Z,100151.19
2023-04-24T20:39:19.244Z,100147.78
2023-04-24T20:41:47.837Z,100146.94
2023-04-24T20:44:16.076Z,100142.94
2023-04-24T20:46:44.034Z,100148.75
2023-04-24T20:49:12.194Z,100141.69
2023-04-24T20:51:41.499Z,100141.69
2023-04-24T20:54:10.987Z,100141.69
2023-04-24T20:56:39.137Z,100141.69
2023-04-24T20:59:07.295Z,100140.84
2023-04-24T21:01:35.285Z,100137.31
2023-04-24T21:04:03.461Z,100136.56
2023-04-24T21:06:32.128Z,100130.97
2023-04-24T21:09:00.550Z,100122.94
2023-04-24T21:11:30.060Z,100122.84
2023-04-24T21:13:58.216Z,100122.94
2023-04-24T21:16:26.265Z,100123.69
2023-04-24T21:18:54.314Z,100120.16
2023-04-24T21:21:22.439Z,100111.28
2023-04-24T21:23:50.591Z,100104.22
2023-04-24T21:26:18.990Z,100101.53
2023-04-24T21:28:48.556Z,100100.56
2023-04-24T21:31:16.522Z,100084.91
2023-04-24T21:33:44.624Z,100093.50
2023-04-24T21:36:12.721Z,100094.38
2023-04-24T21:38:41.213Z,100086.34
2023-04-24T21:41:09.231Z,100087.34
2023-04-24T21:43:44.717Z,100066.19
2023-04-24T21:46:20.014Z,100084.66
2023-04-24T21:48:48.036Z,100074.78
2023-04-24T21:51:16.682Z,100071.28
2023-04-24T21:53:44.717Z,100062.66
2023-04-24T21:56:13.154Z,100069.44
2023-04-24T21:58:41.288Z,100053.91
2023-04-24T22:01:09.874Z,100055.22
2023-04-24T22:03:39.472Z,100049.72
2023-04-24T22:06:07.816Z,100046.19
2023-04-24T22:08:36.424Z,100048.88
2023-04-24T22:11:07.220Z,100049.88
2023-04-24T22:13:39.412Z,100047.19
2023-04-24T22:16:07.833Z,100041.00
2023-04-24T22:18:46.618Z,100046.19
2023-04-24T22:21:16.760Z,100045.34
2023-04-24T22:23:44.782Z,100039.28
2023-04-24T22:26:12.881Z,100031.25
2023-04-24T22:28:40.975Z,100050.59
2023-04-24T22:31:09.476Z,100045.09
2023-04-24T22:33:37.463Z,100041.56
2023-04-24T22:36:05.913Z,100031.72
2023-04-24T22:38:35.269Z,100033.53
2023-04-24T22:41:03.463Z,100027.34
2023-04-24T22:43:31.809Z,100028.31
2023-04-24T22:45:59.849Z,100023.81
2023-04-24T22:48:28.096Z,100023.81
2023-04-24T22:50:56.194Z,100026.50
2023-04-24T22:53:24.199Z,100018.59
2023-04-24T22:55:53.505Z,99999.41
2023-04-24T22:58:21.506Z,100023.94
2023-04-24T23:00:49.705Z,99970.53
2023-04-24T23:03:17.949Z,99999.84
2023-04-24T23:05:46.010Z,100003.38
2023-04-24T23:08:13.960Z,99998.28
2023-04-24T23:10:42.490Z,100000.84
2023-04-24T23:13:11.898Z,99981.13
2023-04-24T23:15:40.159Z,99985.75
2023-04-24T23:18:08.181Z,99979.81
2023-04-24T23:20:36.186Z,99981.38
2023-04-24T23:23:04.189Z,99975.44
2023-04-24T23:25:32.846Z,99979.69
2023-04-24T23:28:00.827Z,99980.66
2023-04-24T23:30:30.743Z,99939.78
2023-04-24T23:32:58.821Z,99973.63
2023-04-24T23:35:27.105Z,99947.16
2023-04-24T23:37:56.193Z,99957.84
2023-04-24T23:40:24.394Z,99957.69
2023-04-24T23:43:05.716Z,99954.16
2023-04-24T23:45:37.119Z,99952.47
2023-04-24T23:48:05.937Z,99954.31
2023-04-24T23:50:34.348Z,99947.25
2023-04-24T23:53:02.677Z,99939.34
2023-04-24T23:55:30.998Z,99942.88
2023-04-24T23:57:59.106Z,99937.66
